Dyess AFB, Texas
Current Conditions -  °F | °C
As of 1:58 PM on Thursday 20 Nov 2014 (Local Time) from KDYS Reporting Station
Clear Clear  
Wind Chill: 21°   Ceiling: Unl
Heat Index: 21°   Visibility: 10mi
Dew Point:   Wind: 14mph
Humidity: 41%   Direction: 180°S
Pressure: 29.95"   Gusts: 22mph
Location:  32.42°N, 99.82°W
Report Text: KDYS 201958Z AUTO 18012G19KT 10SM CLR 21/07 A2995 RMK AO2 SLP120 T02090072 $
Loading
Personal Weather Stations






























Interactive Weather Map New forecast layout! Learn more

10-Day Weather Forecast

Advertisements
Track Severe Weather on mobile